Crystal Springs, MS (39059)

9:45 PM CST on November 20, 2014 (GMT -0600)
Crystal Springs Farm Mkt | Change Station
CLOSE
Current Station
Personal Weather Station
Location: Crystal Springs, MS
Elevation: 453 ft
Nearby Weather Stations

Elev 453 ft 31.95 °N, 90.34 °W | Updated 9 minutes ago

Clear
Clear
55.7 °F
Feels Like 55.7 °F
N
5.0
Wind Variable Wind from South

Today
High -- | Low -- °F
--% Chance of Precip.
Yesterday
High -- | Low -- °F
Precip. -- in
6:34 AM 4:59 PM
Waning Crescent, 2% visible
Pressure 30.21 in
Visibility 6.0 miles
Clouds Clear
Dew Point 49 °F
Humidity 78%
Rainfall 0.00 in
Snow Depth Not available.
UV 0 out of 12
Pollen .10 out of 12
Air Quality Not available.
Flu Activity Not available.
METAR KJVW 210315Z AUTO 00000KT 6SM HZ CLR 08/05 A3021 RMK AO2

More Conditions Fewer Conditions

Pressure 30.21 in
Visibility 6.0 miles
Clouds Clear
Dew Point 49 °F
Humidity 78%
Rainfall 0.00 in
Snow Depth Not available.
UV 0 out of 12
Pollen .10 out of 12
Air Quality Not available.
Flu Activity Not available.
METAR KJVW 210315Z AUTO 00000KT 6SM HZ CLR 08/05 A3021 RMK AO2

More Conditions Fewer Conditions

10-Day Weather Forecast

Almanac

Astronomy

Nov. 20, 2014 Rise Set
Actual Time
Civil Twilight
Nautical Twilight
Astronomical Twilight
Moon
Length of Visible Light
Length of Day
Tomorrow will be .
, % of the Moon is Illuminated

Today's Extremes

State Highs State Lows

Community

WunderPhotos

Upload Photos

1,772,612 photos uploaded!

WunderBlogs® & News

Nearby

Air Quality

  Air Quality AQ Index Pollutant
Not available.

Snow Depth

Station Depth Elevation

Earthquake Activity

City Distance Mag. Time & Date
Minimum magnitude displayed is 2.5.

Coastal Water Temperatures

Place Temperature

Nearby Weather Stations